createdAt,value
2018-02-25T00:02:10.835Z,28.83
2018-02-25T00:04:43.775Z,27.63
2018-02-25T00:07:19.423Z,31.23
2018-02-25T00:09:56.717Z,25.57
2018-02-25T00:12:33.658Z,26.93
2018-02-25T00:15:14.753Z,30.60
2018-02-25T00:17:48.948Z,34.57
2018-02-25T00:20:30.627Z,26.93
2018-02-25T00:23:11.576Z,27.53
2018-02-25T00:25:53.036Z,28.47
2018-02-25T00:28:30.220Z,30.43
2018-02-25T00:31:04.528Z,33.60
2018-02-25T00:33:44.999Z,25.43
2018-02-25T00:36:20.858Z,29.03
2018-02-25T00:38:56.469Z,28.67
2018-02-25T00:41:37.274Z,28.43
2018-02-25T00:44:16.617Z,25.57
2018-02-25T00:46:56.570Z,27.60
2018-02-25T00:49:36.235Z,27.10
2018-02-25T00:52:20.352Z,30.10
2018-02-25T00:54:59.474Z,27.53
2018-02-25T00:57:36.634Z,24.23
2018-02-25T01:00:17.321Z,24.53
2018-02-25T01:03:03.106Z,25.87
2018-02-25T01:05:38.017Z,26.67
2018-02-25T01:08:15.120Z,25.03
2018-02-25T01:10:47.906Z,28.83
2018-02-25T01:13:29.876Z,25.70
2018-02-25T01:20:35.016Z,24.50
2018-02-25T01:23:13.575Z,23.17
2018-02-25T01:26:00.439Z,25.83
2018-02-25T01:28:47.582Z,25.13
2018-02-25T01:31:30.838Z,21.37
2018-02-25T01:34:12.575Z,21.73
2018-02-25T01:37:00.358Z,19.77
2018-02-25T01:39:46.702Z,23.00
2018-02-25T01:42:36.246Z,24.00
2018-02-25T01:45:26.392Z,22.47
2018-02-25T01:48:05.171Z,16.13
2018-02-25T01:51:07.331Z,21.77
2018-02-25T01:53:52.866Z,15.57
2018-02-25T01:56:41.442Z,17.43
2018-02-25T01:59:27.560Z,20.63
2018-02-25T02:02:11.116Z,17.67
2018-02-25T02:04:59.953Z,16.27
2018-02-25T02:07:53.741Z,19.90
2018-02-25T02:10:57.101Z,17.43
2018-02-25T02:13:57.003Z,16.43
2018-02-25T02:16:46.833Z,16.87
2018-02-25T02:19:38.141Z,16.17
2018-02-25T02:22:37.567Z,16.90
2018-02-25T02:25:27.691Z,16.83
2018-02-25T02:28:18.785Z,20.07
2018-02-25T02:31:02.865Z,19.03
2018-02-25T02:33:49.525Z,16.63
2018-02-25T02:36:43.279Z,13.33
2018-02-25T02:39:28.622Z,16.63
2018-02-25T02:42:14.597Z,17.07
2018-02-25T02:45:08.794Z,15.83
2018-02-25T02:47:50.061Z,17.83
2018-02-25T02:50:37.359Z,20.30
2018-02-25T02:53:23.121Z,20.30
2018-02-25T02:56:14.936Z,18.73
2018-02-25T02:59:02.692Z,15.33
2018-02-25T03:01:55.922Z,16.37
2018-02-25T03:04:49.857Z,18.57
2018-02-25T03:07:41.111Z,14.70
2018-02-25T03:10:35.457Z,15.10
2018-02-25T03:13:32.522Z,15.90
2018-02-25T03:19:25.217Z,13.37
2018-02-25T03:27:40.831Z,11.50
2018-02-25T03:30:21.805Z,9.67
2018-02-25T03:33:01.053Z,12.33
2018-02-25T03:35:41.004Z,11.80
2018-02-25T03:38:16.065Z,11.27
2018-02-25T03:40:48.410Z,9.70
2018-02-25T03:43:19.619Z,11.23
2018-02-25T03:45:50.502Z,11.10
2018-02-25T03:48:26.668Z,9.37
2018-02-25T03:51:00.774Z,9.93
2018-02-25T03:53:30.790Z,9.27
2018-02-25T03:59:50.707Z,9.60
2018-02-25T04:02:20.984Z,10.77
2018-02-25T04:04:55.340Z,9.67
2018-02-25T04:07:26.831Z,10.13
2018-02-25T04:09:59.034Z,8.87
2018-02-25T04:12:30.981Z,8.23
2018-02-25T04:15:05.091Z,9.00
2018-02-25T05:04:34.657Z,10.17
2018-02-25T05:07:09.115Z,12.67
2018-02-25T05:25:13.964Z,10.40
2018-02-25T05:43:20.031Z,5.20
2018-02-25T05:45:50.786Z,5.10
2018-02-25T05:51:47.060Z,3.80
2018-02-25T05:54:19.292Z,3.47
2018-02-25T05:56:52.327Z,3.37
2018-02-25T06:36:08.135Z,2.57
2018-02-25T06:38:37.755Z,2.23
2018-02-25T06:41:07.754Z,3.53
2018-02-25T06:43:38.683Z,6.50
2018-02-25T06:46:09.391Z,8.67
2018-02-25T06:48:39.500Z,4.33
2018-02-25T06:51:11.225Z,4.30
2018-02-25T06:53:42.233Z,3.40
2018-02-25T06:56:14.727Z,10.87
2018-02-25T06:58:47.575Z,5.07
2018-02-25T07:01:18.255Z,3.50
2018-02-25T07:03:47.955Z,4.63
2018-02-25T07:06:17.843Z,3.17
2018-02-25T07:08:48.655Z,2.50
2018-02-25T07:11:18.381Z,1.97
2018-02-25T07:13:48.079Z,1.90
2018-02-25T07:16:18.835Z,2.10
2018-02-25T07:18:49.483Z,1.70
2018-02-25T07:21:19.774Z,2.13
2018-02-25T07:23:53.543Z,1.50
2018-02-25T07:26:25.566Z,1.60
2018-02-25T07:28:59.529Z,1.60
2018-02-25T07:31:29.817Z,1.70
2018-02-25T07:34:00.520Z,1.47
2018-02-25T07:36:30.288Z,1.77
2018-02-25T07:38:59.991Z,1.93
2018-02-25T07:41:39.850Z,1.80
2018-02-25T07:44:10.415Z,1.70
2018-02-25T07:46:41.590Z,2.27
2018-02-25T07:49:13.773Z,2.13
2018-02-25T07:51:46.350Z,3.23
2018-02-25T07:54:16.240Z,4.87
2018-02-25T07:56:46.042Z,3.20
2018-02-25T07:59:15.746Z,8.87
2018-02-25T08:01:47.199Z,6.50
2018-02-25T08:04:17.018Z,5.40
2018-02-25T08:06:46.585Z,6.70
2018-02-25T08:09:17.912Z,6.07
2018-02-25T08:11:47.613Z,4.80
2018-02-25T08:14:17.310Z,3.30
2018-02-25T08:16:58.266Z,4.27
2018-02-25T08:19:32.401Z,2.20
2018-02-25T08:22:02.079Z,3.10
2018-02-25T08:24:31.905Z,2.93
2018-02-25T08:27:01.629Z,4.20
2018-02-25T08:29:31.245Z,3.27
2018-02-25T08:32:01.883Z,2.90
2018-02-25T08:34:31.623Z,5.07
2018-02-25T08:37:13.616Z,3.37
2018-02-25T08:39:47.068Z,4.10
2018-02-25T08:42:22.139Z,4.80
2018-02-25T08:44:51.808Z,5.80
2018-02-25T08:47:21.651Z,5.23
2018-02-25T08:49:52.108Z,7.83
2018-02-25T08:52:21.649Z,5.43
2018-02-25T09:30:11.182Z,7.80
2018-02-25T09:33:02.137Z,9.90
2018-02-25T09:36:15.433Z,7.80
2018-02-25T09:38:58.312Z,9.67
2018-02-25T09:57:08.594Z,7.33
2018-02-25T09:59:46.927Z,10.53
2018-02-25T10:02:29.622Z,12.80
2018-02-25T10:05:29.996Z,9.20
2018-02-25T10:08:01.878Z,10.40
2018-02-25T10:10:34.386Z,8.20
2018-02-25T10:13:04.656Z,10.87
2018-02-25T10:15:39.185Z,8.87
2018-02-25T10:22:25.738Z,6.10
2018-02-25T10:25:22.607Z,6.40
2018-02-25T10:52:11.037Z,8.87
2018-02-25T10:54:41.801Z,12.30
2018-02-25T10:57:11.320Z,36.37
2018-02-25T10:59:42.003Z,28.73
2018-02-25T11:02:15.560Z,38.63
2018-02-25T11:51:26.631Z,10.87
2018-02-25T11:53:56.378Z,17.80
2018-02-25T11:56:26.188Z,12.27
2018-02-25T11:58:56.312Z,11.97
2018-02-25T12:16:56.268Z,8.97
2018-02-25T13:17:33.605Z,16.73
2018-02-25T13:20:03.469Z,15.10
2018-02-25T13:22:34.047Z,13.50
2018-02-25T13:25:03.826Z,19.60
2018-02-25T13:27:35.279Z,16.67
2018-02-25T13:43:38.551Z,14.80
2018-02-25T13:48:57.819Z,11.13
2018-02-25T14:05:50.753Z,11.73
2018-02-25T14:08:21.051Z,14.73
2018-02-25T14:10:50.573Z,10.83
2018-02-25T14:13:20.213Z,10.13
2018-02-25T14:15:49.948Z,10.10
2018-02-25T14:18:21.338Z,10.70
2018-02-25T14:20:51.024Z,10.47
2018-02-25T14:23:21.567Z,12.37
2018-02-25T14:25:51.531Z,15.43
2018-02-25T14:28:21.196Z,15.03
2018-02-25T14:30:56.190Z,14.17
2018-02-25T14:33:26.026Z,12.63
2018-02-25T14:35:55.830Z,14.43
2018-02-25T14:38:25.576Z,15.33
2018-02-25T14:40:56.374Z,15.93
2018-02-25T14:43:26.073Z,15.40
2018-02-25T14:45:55.708Z,15.93
2018-02-25T14:48:25.641Z,14.63
2018-02-25T14:50:55.421Z,13.03
2018-02-25T14:53:26.053Z,11.67
2018-02-25T14:55:55.666Z,16.43
2018-02-25T14:58:26.924Z,12.87
2018-02-25T15:01:05.142Z,14.50
2018-02-25T15:03:38.241Z,14.77
2018-02-25T15:08:44.193Z,11.60
2018-02-25T15:11:14.508Z,15.40
2018-02-25T15:13:44.435Z,13.87
2018-02-25T15:16:13.913Z,15.83
2018-02-25T15:18:43.595Z,24.13
2018-02-25T15:21:13.488Z,15.33
2018-02-25T15:24:03.249Z,17.97
2018-02-25T15:26:33.750Z,15.17
2018-02-25T15:29:03.406Z,18.17
2018-02-25T15:47:08.395Z,12.93
2018-02-25T15:49:38.450Z,11.00
2018-02-25T16:13:54.758Z,17.17
2018-02-25T16:16:25.785Z,16.07
2018-02-25T16:18:58.143Z,13.30
2018-02-25T16:21:28.675Z,12.50
2018-02-25T16:23:58.313Z,16.57
2018-02-25T16:29:54.727Z,17.53
2018-02-25T16:32:25.402Z,14.13
2018-02-25T16:34:56.053Z,15.73
2018-02-25T16:44:41.081Z,18.10
2018-02-25T16:47:11.356Z,14.57
2018-02-25T16:49:41.386Z,14.93
2018-02-25T16:52:11.890Z,20.03
2018-02-25T16:54:42.182Z,19.37
2018-02-25T16:57:12.877Z,25.43
2018-02-25T16:59:44.062Z,19.57
2018-02-25T17:02:13.929Z,20.33
2018-02-25T17:04:46.070Z,21.47
2018-02-25T17:07:15.786Z,25.83
2018-02-25T17:09:45.418Z,21.37
2018-02-25T17:12:16.876Z,18.60
2018-02-25T17:14:47.352Z,19.23
2018-02-25T17:17:18.162Z,19.37
2018-02-25T17:19:49.048Z,15.70
2018-02-25T17:22:18.846Z,18.60
2018-02-25T17:24:48.662Z,23.20
2018-02-25T17:27:18.498Z,18.93
2018-02-25T17:29:53.873Z,18.67
2018-02-25T17:32:26.045Z,20.83
2018-02-25T17:34:56.112Z,26.50
2018-02-25T17:49:30.698Z,23.27
2018-02-25T17:52:01.075Z,23.70
2018-02-25T17:54:34.652Z,21.13
2018-02-25T17:57:05.497Z,21.83
2018-02-25T17:59:39.096Z,19.33
2018-02-25T18:02:08.954Z,23.67
2018-02-25T18:04:42.030Z,17.93
2018-02-25T18:14:53.244Z,17.50
2018-02-25T18:18:28.520Z,15.97
2018-02-25T18:21:02.162Z,16.37
2018-02-25T18:23:31.941Z,17.47
2018-02-25T18:33:58.506Z,20.23
2018-02-25T18:36:33.701Z,24.37
2018-02-25T18:39:15.744Z,22.17
2018-02-25T18:41:49.332Z,23.37
2018-02-25T18:44:19.041Z,16.07
2018-02-25T18:46:51.768Z,23.17
2018-02-25T18:49:23.208Z,27.47
2018-02-25T18:52:01.342Z,21.87
2018-02-25T18:54:35.066Z,18.27
2018-02-25T19:11:24.845Z,17.47
2018-02-25T19:13:54.810Z,20.10
2018-02-25T19:16:24.901Z,18.03
2018-02-25T19:18:55.669Z,14.60
2018-02-25T19:21:26.174Z,21.77
2018-02-25T19:23:57.325Z,16.53
2018-02-25T19:26:28.591Z,15.00
2018-02-25T19:28:59.336Z,15.93
2018-02-25T19:31:29.308Z,18.37
2018-02-25T19:33:59.270Z,16.63
2018-02-25T19:39:29.610Z,18.97
2018-02-25T19:42:02.984Z,22.57
2018-02-25T19:44:41.969Z,23.50
2018-02-25T19:47:15.316Z,22.40
2018-02-25T19:49:53.092Z,18.37
2018-02-25T19:52:28.682Z,19.67
2018-02-25T19:55:04.682Z,18.80
2018-02-25T19:57:45.759Z,28.53
2018-02-25T20:00:52.962Z,24.37
2018-02-25T20:03:27.010Z,16.70
2018-02-25T20:05:58.751Z,23.63
2018-02-25T20:08:30.918Z,19.67
2018-02-25T20:11:02.834Z,21.43
2018-02-25T20:13:34.405Z,19.67
2018-02-25T20:16:06.698Z,19.57
2018-02-25T20:18:36.965Z,21.37
2018-02-25T20:21:08.260Z,21.87
2018-02-25T20:23:38.417Z,20.23
2018-02-25T20:26:16.231Z,25.10
2018-02-25T20:29:04.991Z,23.53
2018-02-25T20:31:55.975Z,20.80
2018-02-25T20:34:35.346Z,22.07
2018-02-25T20:37:06.566Z,18.80
2018-02-25T20:39:36.263Z,22.40
2018-02-25T20:42:05.788Z,24.70
2018-02-25T20:44:35.594Z,20.07
2018-02-25T20:47:05.510Z,23.70
2018-02-25T20:49:35.078Z,24.87
2018-02-25T20:52:04.747Z,22.00
2018-02-25T20:54:34.370Z,19.50
2018-02-25T20:57:04.837Z,20.30
2018-02-25T20:59:34.431Z,23.03
2018-02-25T21:02:04.087Z,20.47
2018-02-25T21:04:38.553Z,21.53
2018-02-25T21:07:08.805Z,25.90
2018-02-25T21:09:38.432Z,23.07
2018-02-25T21:12:07.971Z,18.97
2018-02-25T21:14:37.594Z,17.17
2018-02-25T21:17:08.184Z,24.53
2018-02-25T21:19:37.892Z,22.07
2018-02-25T21:22:08.030Z,21.93
2018-02-25T21:24:38.541Z,17.33
2018-02-25T21:27:08.092Z,26.70
2018-02-25T21:29:38.428Z,19.50
2018-02-25T21:32:08.791Z,20.13
2018-02-25T21:34:38.652Z,17.67
2018-02-25T21:37:09.059Z,24.77
2018-02-25T21:39:38.880Z,19.60
2018-02-25T21:42:08.660Z,25.20
2018-02-25T21:44:38.280Z,22.50
2018-02-25T21:47:09.446Z,22.67
2018-02-25T21:49:39.171Z,22.73
2018-02-25T21:52:09.717Z,19.10
2018-02-25T21:54:49.335Z,19.10
2018-02-25T21:57:25.295Z,21.70
2018-02-25T22:00:01.427Z,15.70
2018-02-25T22:02:36.327Z,19.93
2018-02-25T22:05:06.232Z,17.60
2018-02-25T22:07:36.028Z,18.57
2018-02-25T22:10:05.682Z,21.93
2018-02-25T22:12:35.637Z,22.90
2018-02-25T22:15:06.610Z,17.60
2018-02-25T22:17:36.203Z,22.97
2018-02-25T22:20:05.894Z,21.40
2018-02-25T22:22:35.690Z,20.97
2018-02-25T22:25:06.212Z,25.97
2018-02-25T22:27:36.827Z,16.47
2018-02-25T22:30:06.464Z,16.80
2018-02-25T22:32:36.562Z,16.47
2018-02-25T22:35:10.165Z,17.70
2018-02-25T22:37:50.823Z,23.07
2018-02-25T22:40:23.626Z,19.83
2018-02-25T22:42:53.776Z,15.07
2018-02-25T22:45:23.664Z,18.63
2018-02-25T22:48:05.796Z,16.60
2018-02-25T22:50:35.375Z,18.83
2018-02-25T22:53:05.096Z,17.73
2018-02-25T22:55:35.365Z,18.37
2018-02-25T22:58:05.027Z,18.93
2018-02-25T23:00:35.463Z,17.93
2018-02-25T23:03:06.878Z,18.73
2018-02-25T23:05:36.982Z,16.90
2018-02-25T23:08:07.049Z,19.83
2018-02-25T23:10:37.981Z,17.40
2018-02-25T23:13:09.869Z,17.70
2018-02-25T23:15:39.981Z,18.87
2018-02-25T23:18:09.779Z,18.37
2018-02-25T23:20:39.352Z,18.23
2018-02-25T23:23:09.561Z,19.33
2018-02-25T23:25:39.477Z,21.57
2018-02-25T23:28:09.397Z,21.43
2018-02-25T23:30:39.283Z,20.57
2018-02-25T23:33:09.643Z,21.67
